createdAt,value
2022-11-27T00:00:14.978Z,8.50
2022-11-27T00:02:42.713Z,7.63
2022-11-27T00:05:10.718Z,6.33
2022-11-27T00:07:38.475Z,6.73
2022-11-27T00:10:07.773Z,7.03
2022-11-27T00:12:36.135Z,6.50
2022-11-27T00:15:03.986Z,7.43
2022-11-27T00:17:33.065Z,6.27
2022-11-27T00:20:00.700Z,5.80
2022-11-27T00:22:29.948Z,7.63
2022-11-27T00:24:57.649Z,8.07
2022-11-27T00:27:26.135Z,7.20
2022-11-27T00:29:53.771Z,7.07
2022-11-27T00:32:21.424Z,6.60
2022-11-27T00:34:50.467Z,7.17
2022-11-27T00:37:18.257Z,6.07
2022-11-27T00:39:45.930Z,8.57
2022-11-27T00:42:13.583Z,7.93
2022-11-27T00:44:41.489Z,8.33
2022-11-27T00:47:09.414Z,7.10
2022-11-27T00:49:37.974Z,7.07
2022-11-27T00:52:07.486Z,7.83
2022-11-27T00:54:35.277Z,7.50
2022-11-27T00:57:02.947Z,7.30
2022-11-27T00:59:30.611Z,6.83
2022-11-27T01:01:58.327Z,6.37
2022-11-27T01:04:26.049Z,7.00
2022-11-27T01:06:53.680Z,6.87
2022-11-27T01:09:22.682Z,6.87
2022-11-27T01:11:50.351Z,6.50
2022-11-27T01:14:19.291Z,6.37
2022-11-27T01:16:47.177Z,6.27
2022-11-27T01:19:16.057Z,7.90
2022-11-27T01:21:44.842Z,5.77
2022-11-27T01:24:14.177Z,5.97
2022-11-27T01:26:43.941Z,5.40
2022-11-27T01:29:12.127Z,6.30
2022-11-27T01:31:40.061Z,5.97
2022-11-27T01:34:09.990Z,6.87
2022-11-27T01:36:37.662Z,6.03
2022-11-27T01:39:05.914Z,5.30
2022-11-27T01:41:35.404Z,6.40
2022-11-27T01:44:25.883Z,5.57
2022-11-27T01:46:54.704Z,6.33
2022-11-27T01:49:26.278Z,5.43
2022-11-27T01:51:56.633Z,6.20
2022-11-27T01:54:26.965Z,5.63
2022-11-27T01:56:57.242Z,5.67
2022-11-27T01:59:26.427Z,5.40
2022-11-27T02:01:54.182Z,5.33
2022-11-27T02:04:22.012Z,5.93
2022-11-27T02:06:49.698Z,5.47
2022-11-27T02:09:17.751Z,5.03
2022-11-27T02:11:52.575Z,4.70
2022-11-27T02:14:24.035Z,5.33
2022-11-27T02:16:56.918Z,5.60
2022-11-27T02:19:31.611Z,5.03
2022-11-27T02:22:01.784Z,4.70
2022-11-27T02:24:48.441Z,4.90
2022-11-27T02:27:44.772Z,5.17
2022-11-27T02:30:14.075Z,4.83
2022-11-27T02:32:45.388Z,6.17
2022-11-27T02:35:15.981Z,5.63
2022-11-27T02:37:47.870Z,5.63
2022-11-27T02:40:17.930Z,5.70
2022-11-27T02:42:49.431Z,5.57
2022-11-27T02:45:23.515Z,5.23
2022-11-27T02:47:51.727Z,5.57
2022-11-27T02:50:22.330Z,5.63
2022-11-27T02:52:52.118Z,7.00
2022-11-27T02:55:23.174Z,5.00
2022-11-27T02:57:52.358Z,4.47
2022-11-27T03:00:21.699Z,4.90
2022-11-27T03:02:54.462Z,5.07
2022-11-27T03:05:24.403Z,5.73
2022-11-27T03:07:55.821Z,4.57
2022-11-27T03:10:32.669Z,4.77
2022-11-27T03:13:01.171Z,4.57
2022-11-27T03:15:33.768Z,4.87
2022-11-27T03:18:04.730Z,5.50
2022-11-27T03:23:07.684Z,4.30
2022-11-27T03:25:35.443Z,4.53
2022-11-27T03:28:05.145Z,5.53
2022-11-27T03:30:34.230Z,4.17
2022-11-27T03:33:02.498Z,3.83
2022-11-27T03:35:31.772Z,5.03
2022-11-27T03:37:59.492Z,5.07
2022-11-27T03:40:31.171Z,4.27
2022-11-27T03:43:01.596Z,3.30
2022-11-27T03:45:35.298Z,4.43
2022-11-27T03:48:14.874Z,3.93
2022-11-27T03:50:55.089Z,4.20
2022-11-27T03:53:26.741Z,4.77
2022-11-27T03:55:59.190Z,4.10
2022-11-27T03:58:34.202Z,3.53
2022-11-27T04:01:05.825Z,4.00
2022-11-27T04:03:33.725Z,3.70
2022-11-27T04:06:01.439Z,3.70
2022-11-27T04:08:29.156Z,3.60
2022-11-27T04:10:56.831Z,3.73
2022-11-27T04:13:24.547Z,3.00
2022-11-27T04:15:52.214Z,3.67
2022-11-27T04:18:21.284Z,3.03
2022-11-27T04:23:19.136Z,3.67
2022-11-27T04:25:47.020Z,3.30
2022-11-27T04:28:14.742Z,2.67
2022-11-27T04:30:42.668Z,3.70
2022-11-27T04:33:10.363Z,2.70
2022-11-27T04:35:39.367Z,3.60
2022-11-27T04:38:07.042Z,3.97
2022-11-27T04:40:34.733Z,3.73
2022-11-27T04:43:02.553Z,3.67
2022-11-27T04:45:30.602Z,3.43
2022-11-27T04:47:58.241Z,3.07
2022-11-27T04:50:26.095Z,3.97
2022-11-27T04:52:55.221Z,3.50
2022-11-27T04:55:22.912Z,2.53
2022-11-27T04:57:50.653Z,2.40
2022-11-27T05:00:19.360Z,2.60
2022-11-27T05:02:47.057Z,3.67
2022-11-27T05:05:14.901Z,2.80
2022-11-27T05:07:42.617Z,3.03
2022-11-27T05:10:12.158Z,3.23
2022-11-27T05:12:39.848Z,2.90
2022-11-27T05:15:09.115Z,2.90
2022-11-27T05:17:36.799Z,4.10
2022-11-27T05:20:04.952Z,2.90
2022-11-27T05:22:32.653Z,2.63
2022-11-27T05:25:00.328Z,2.57
2022-11-27T05:27:29.446Z,2.50
2022-11-27T05:29:57.131Z,3.00
2022-11-27T05:32:25.035Z,3.93
2022-11-27T05:34:52.709Z,2.97
2022-11-27T05:37:20.378Z,3.27
2022-11-27T05:39:48.117Z,3.23
2022-11-27T05:42:15.850Z,3.30
2022-11-27T05:44:44.895Z,3.17
2022-11-27T05:47:12.560Z,3.20
2022-11-27T05:49:40.207Z,3.60
2022-11-27T05:52:07.855Z,3.63
2022-11-27T05:54:35.591Z,3.27
2022-11-27T05:57:03.271Z,2.47
2022-11-27T05:59:30.927Z,3.00
2022-11-27T06:01:59.967Z,3.00
2022-11-27T06:04:27.726Z,5.57
2022-11-27T06:06:55.445Z,3.10
2022-11-27T06:09:23.134Z,2.73
2022-11-27T06:11:50.834Z,3.00
2022-11-27T06:14:18.572Z,3.00
2022-11-27T06:16:46.320Z,2.10
2022-11-27T06:19:15.333Z,2.30
2022-11-27T06:21:43.049Z,2.53
2022-11-27T06:24:11.867Z,2.53
2022-11-27T06:26:39.555Z,3.87
2022-11-27T06:29:07.263Z,2.40
2022-11-27T06:31:35.346Z,3.27
2022-11-27T06:34:04.037Z,2.70
2022-11-27T06:36:34.882Z,2.70
2022-11-27T06:39:04.784Z,2.83
2022-11-27T06:41:33.461Z,3.90
2022-11-27T06:44:01.876Z,3.27
2022-11-27T06:46:30.927Z,4.00
2022-11-27T06:48:59.747Z,3.07
2022-11-27T06:51:29.494Z,3.27
2022-11-27T06:54:00.443Z,3.20
2022-11-27T06:56:29.721Z,2.63
2022-11-27T06:58:58.831Z,3.20
2022-11-27T07:01:27.893Z,2.27
2022-11-27T07:03:55.671Z,4.20
2022-11-27T07:06:25.063Z,4.10
2022-11-27T07:08:53.220Z,2.40
2022-11-27T07:11:23.853Z,3.10
2022-11-27T07:13:52.766Z,3.13
2022-11-27T07:16:20.743Z,3.03
2022-11-27T07:18:49.900Z,2.70
2022-11-27T07:21:18.983Z,2.50
2022-11-27T07:23:46.973Z,2.70
2022-11-27T07:26:16.284Z,3.53
2022-11-27T07:28:45.938Z,4.13
2022-11-27T07:31:14.557Z,3.97
2022-11-27T07:33:42.240Z,3.23
2022-11-27T07:36:13.961Z,3.70
2022-11-27T07:38:41.891Z,4.23
2022-11-27T07:41:09.922Z,4.17
2022-11-27T07:43:37.841Z,4.00
2022-11-27T07:46:07.437Z,3.47
2022-11-27T07:48:35.230Z,4.30
2022-11-27T07:51:02.973Z,2.87
2022-11-27T07:53:30.666Z,4.87
2022-11-27T07:56:00.294Z,3.57
2022-11-27T07:58:28.038Z,4.47
2022-11-27T08:00:56.405Z,2.90
2022-11-27T08:03:25.649Z,2.60
2022-11-27T08:05:53.448Z,2.63
2022-11-27T08:08:21.217Z,2.60
2022-11-27T08:10:48.981Z,2.60
2022-11-27T08:13:16.702Z,3.00
2022-11-27T08:15:46.093Z,2.73
2022-11-27T08:18:13.910Z,2.60
2022-11-27T08:20:42.995Z,2.73
2022-11-27T08:23:10.706Z,2.80
2022-11-27T08:25:38.919Z,2.60
2022-11-27T08:28:06.663Z,3.77
2022-11-27T08:30:34.402Z,3.77
2022-11-27T08:33:02.082Z,2.63
2022-11-27T08:35:29.792Z,2.50
2022-11-27T08:37:59.043Z,2.20
2022-11-27T08:40:26.723Z,3.07
2022-11-27T08:42:54.416Z,3.03
2022-11-27T08:45:22.201Z,2.70
2022-11-27T08:47:50.186Z,2.63
2022-11-27T08:50:17.944Z,2.87
2022-11-27T08:52:45.671Z,2.67
2022-11-27T08:55:14.667Z,2.77
2022-11-27T08:57:42.383Z,3.50
2022-11-27T09:00:13.825Z,3.20
2022-11-27T09:02:43.802Z,3.73
2022-11-27T09:05:11.799Z,2.50
2022-11-27T09:07:40.972Z,2.20
2022-11-27T09:10:09.366Z,2.10
2022-11-27T09:12:43.195Z,2.60
2022-11-27T09:15:12.263Z,2.30
2022-11-27T09:17:40.190Z,2.57
2022-11-27T09:20:09.468Z,2.90
2022-11-27T09:22:37.297Z,2.13
2022-11-27T09:25:05.375Z,2.63
2022-11-27T09:27:34.452Z,2.43
2022-11-27T09:30:03.572Z,3.13
2022-11-27T09:32:31.301Z,1.87
2022-11-27T09:34:59.047Z,1.77
2022-11-27T09:37:26.791Z,3.27
2022-11-27T09:39:55.151Z,2.27
2022-11-27T09:42:33.558Z,2.10
2022-11-27T09:45:03.351Z,2.50
2022-11-27T09:47:40.993Z,2.33
2022-11-27T09:50:15.632Z,2.67
2022-11-27T09:52:45.330Z,2.67
2022-11-27T09:55:17.659Z,2.77
2022-11-27T09:57:51.787Z,2.70
2022-11-27T10:00:21.944Z,2.73
2022-11-27T10:02:49.832Z,1.83
2022-11-27T10:05:23.304Z,2.70
2022-11-27T10:08:27.042Z,2.17
2022-11-27T10:11:04.374Z,2.30
2022-11-27T10:13:57.018Z,2.00
2022-11-27T10:16:30.147Z,2.73
2022-11-27T10:19:01.136Z,2.40
2022-11-27T10:21:36.567Z,2.07
2022-11-27T10:24:09.119Z,2.20
2022-11-27T10:26:40.160Z,2.83
2022-11-27T10:29:14.861Z,2.50
2022-11-27T10:31:48.086Z,2.70
2022-11-27T10:34:23.957Z,2.53
2022-11-27T10:36:52.310Z,2.40
2022-11-27T10:39:32.707Z,2.67
2022-11-27T10:42:04.735Z,2.10
2022-11-27T10:44:36.232Z,2.00
2022-11-27T10:47:07.389Z,2.40
2022-11-27T10:49:37.133Z,2.27
2022-11-27T10:52:05.114Z,2.00
2022-11-27T10:54:36.660Z,3.07
2022-11-27T10:57:18.306Z,2.00
2022-11-27T10:59:49.654Z,2.00
2022-11-27T11:02:37.856Z,1.60
2022-11-27T11:05:40.923Z,1.73
2022-11-27T11:08:18.146Z,1.80
2022-11-27T11:10:51.649Z,1.93
2022-11-27T11:13:21.382Z,2.60
2022-11-27T11:16:00.871Z,2.03
2022-11-27T11:18:31.572Z,2.73
2022-11-27T11:21:01.085Z,2.00
2022-11-27T11:23:31.821Z,2.07
2022-11-27T11:26:04.851Z,3.77
2022-11-27T11:28:38.051Z,2.00
2022-11-27T11:31:10.339Z,2.73
2022-11-27T11:33:48.922Z,2.20
2022-11-27T11:36:16.694Z,1.77
2022-11-27T11:38:46.699Z,2.20
2022-11-27T11:41:17.908Z,1.93
2022-11-27T11:44:03.053Z,1.70
2022-11-27T11:46:32.880Z,2.17
2022-11-27T11:49:05.766Z,1.80
2022-11-27T11:51:43.900Z,2.20
2022-11-27T11:54:21.976Z,2.07
2022-11-27T11:56:52.446Z,1.93
2022-11-27T11:59:27.426Z,1.93
2022-11-27T12:02:26.537Z,2.30
2022-11-27T12:05:10.250Z,2.37
2022-11-27T12:07:52.271Z,2.40
2022-11-27T12:10:24.341Z,2.10
2022-11-27T12:12:58.342Z,2.23
2022-11-27T12:15:30.587Z,2.27
2022-11-27T12:18:02.652Z,2.07
2022-11-27T12:20:45.567Z,2.10
2022-11-27T12:23:34.279Z,2.37
2022-11-27T12:26:08.513Z,2.80
2022-11-27T12:28:47.850Z,2.43
2022-11-27T12:31:23.136Z,2.17
2022-11-27T12:33:59.931Z,1.93
2022-11-27T12:36:39.747Z,2.10
2022-11-27T12:39:13.476Z,2.07
2022-11-27T12:42:00.884Z,1.43
2022-11-27T12:44:36.663Z,1.93
2022-11-27T12:47:09.861Z,1.70
2022-11-27T12:49:41.961Z,1.83
2022-11-27T12:52:14.987Z,1.40
2022-11-27T12:54:47.934Z,1.77
2022-11-27T12:57:18.591Z,1.77
2022-11-27T12:59:50.153Z,1.60
2022-11-27T13:02:28.732Z,1.80
2022-11-27T13:04:59.935Z,1.40
2022-11-27T13:07:38.498Z,1.77
2022-11-27T13:10:13.053Z,1.80
2022-11-27T13:12:46.920Z,1.63
2022-11-27T13:15:22.298Z,1.40
2022-11-27T13:17:54.163Z,1.83
2022-11-27T13:20:26.218Z,2.50
2022-11-27T13:22:55.340Z,1.70
2022-11-27T13:25:23.135Z,1.43
2022-11-27T13:27:52.763Z,1.60
2022-11-27T13:30:23.301Z,1.43
2022-11-27T13:32:53.681Z,2.57
2022-11-27T13:35:24.417Z,1.40
2022-11-27T13:37:59.896Z,1.80
2022-11-27T13:40:29.726Z,1.50
2022-11-27T13:42:58.080Z,1.20
2022-11-27T13:45:29.346Z,1.40
2022-11-27T13:47:58.224Z,1.57
2022-11-27T13:50:30.997Z,1.83
2022-11-27T13:53:04.209Z,2.37
2022-11-27T13:55:33.758Z,1.50
2022-11-27T13:58:02.645Z,1.60
2022-11-27T14:00:36.880Z,1.53
2022-11-27T14:03:05.706Z,1.43
2022-11-27T14:05:40.639Z,1.30
2022-11-27T14:08:20.755Z,1.60
2022-11-27T14:10:55.106Z,2.33
2022-11-27T14:13:27.423Z,2.73
2022-11-27T14:16:01.956Z,2.43
2022-11-27T14:18:31.097Z,3.20
2022-11-27T14:21:01.057Z,2.20
2022-11-27T14:23:31.713Z,2.13
2022-11-27T14:26:13.419Z,3.10
2022-11-27T14:28:44.047Z,2.77
2022-11-27T14:31:24.614Z,4.33
2022-11-27T14:34:16.165Z,5.17
2022-11-27T14:36:40.111Z,7.77
2022-11-27T14:39:09.364Z,9.63
2022-11-27T14:41:37.008Z,9.50
2022-11-27T14:44:07.183Z,8.30
2022-11-27T14:46:37.423Z,9.07
2022-11-27T14:49:05.231Z,9.00
2022-11-27T14:51:35.043Z,7.67
2022-11-27T14:54:03.919Z,5.87
2022-11-27T14:56:35.306Z,4.93
2022-11-27T14:59:03.831Z,4.77
2022-11-27T15:01:33.524Z,3.67
2022-11-27T15:04:03.655Z,3.33
2022-11-27T15:06:34.050Z,3.93
2022-11-27T15:09:30.145Z,2.80
2022-11-27T15:11:56.902Z,2.50
2022-11-27T15:14:25.611Z,2.63
2022-11-27T15:16:54.283Z,3.23
2022-11-27T15:19:27.493Z,2.40
2022-11-27T15:24:37.231Z,2.37
2022-11-27T15:27:17.829Z,2.80
2022-11-27T15:30:01.369Z,2.70
2022-11-27T15:32:45.715Z,2.70
2022-11-27T15:35:15.244Z,2.87
2022-11-27T15:37:43.210Z,3.53
2022-11-27T15:40:25.036Z,3.03
2022-11-27T15:42:54.087Z,2.87
2022-11-27T15:45:22.158Z,4.10
2022-11-27T15:47:50.007Z,3.07
2022-11-27T15:50:18.399Z,3.67
2022-11-27T15:52:48.379Z,3.10
2022-11-27T15:55:16.733Z,3.40
2022-11-27T15:57:44.888Z,4.60
2022-11-27T16:00:15.154Z,3.20
2022-11-27T16:02:42.892Z,3.73
2022-11-27T16:05:10.974Z,4.40
2022-11-27T16:07:38.964Z,3.73
2022-11-27T16:10:08.830Z,4.67
2022-11-27T16:12:36.535Z,4.43
2022-11-27T16:15:04.548Z,5.00
2022-11-27T16:17:33.635Z,4.90
2022-11-27T16:20:03.548Z,5.40
2022-11-27T16:22:31.293Z,5.17
2022-11-27T16:24:58.988Z,5.70
2022-11-27T16:27:26.684Z,6.60
2022-11-27T16:29:55.507Z,6.67
2022-11-27T16:32:23.218Z,7.83
2022-11-27T16:34:52.575Z,7.17
2022-11-27T16:37:20.334Z,7.43
2022-11-27T16:39:47.972Z,7.70
2022-11-27T16:42:15.690Z,8.23
2022-11-27T16:44:44.431Z,8.80
2022-11-27T16:47:12.171Z,8.77
2022-11-27T16:49:40.406Z,8.57
2022-11-27T16:52:11.137Z,9.63
2022-11-27T16:54:39.110Z,9.47
2022-11-27T16:57:06.883Z,9.83
2022-11-27T16:59:37.866Z,9.60
2022-11-27T17:02:05.681Z,8.83
2022-11-27T17:04:33.869Z,10.23
2022-11-27T17:07:02.060Z,9.53
2022-11-27T17:09:31.296Z,10.80
2022-11-27T17:11:59.017Z,10.40
2022-11-27T17:14:27.686Z,11.90
2022-11-27T17:16:55.472Z,12.30
2022-11-27T17:19:24.190Z,12.13
2022-11-27T17:21:51.909Z,13.20
2022-11-27T17:24:19.822Z,12.47
2022-11-27T17:26:49.416Z,13.43
2022-11-27T17:29:18.787Z,12.47
2022-11-27T17:31:46.539Z,13.03
2022-11-27T17:34:15.724Z,12.77
2022-11-27T17:36:45.276Z,13.77
2022-11-27T17:39:14.425Z,13.43
2022-11-27T17:41:44.034Z,15.17
2022-11-27T17:44:13.495Z,16.67
2022-11-27T17:46:41.155Z,18.50
2022-11-27T17:49:09.233Z,23.23
2022-11-27T17:51:37.482Z,20.87
2022-11-27T17:54:06.737Z,20.40
2022-11-27T17:56:35.582Z,19.87
2022-11-27T17:59:03.527Z,20.03
2022-11-27T18:01:34.515Z,20.27
2022-11-27T18:04:04.210Z,18.70
2022-11-27T18:06:32.283Z,19.07
2022-11-27T18:09:00.415Z,20.73
2022-11-27T18:11:29.705Z,18.73
2022-11-27T18:13:57.400Z,18.03
2022-11-27T18:16:29.062Z,18.50
2022-11-27T18:18:59.065Z,18.80
2022-11-27T18:21:28.722Z,20.03
2022-11-27T18:27:07.164Z,21.90
2022-11-27T18:29:32.152Z,19.03
2022-11-27T18:31:59.922Z,19.00
2022-11-27T18:34:29.017Z,17.83
2022-11-27T18:36:59.425Z,20.77
2022-11-27T18:39:27.378Z,21.57
2022-11-27T18:41:55.117Z,21.80
2022-11-27T18:44:22.803Z,24.43
2022-11-27T18:46:50.710Z,22.47
2022-11-27T18:49:18.572Z,21.73
2022-11-27T18:51:47.659Z,21.00
2022-11-27T18:54:15.427Z,19.83
2022-11-27T18:56:43.082Z,20.93
2022-11-27T18:59:10.806Z,19.93
2022-11-27T19:01:42.312Z,18.30
2022-11-27T19:04:11.121Z,21.60
2022-11-27T19:06:39.787Z,18.27
2022-11-27T19:09:09.080Z,18.53
2022-11-27T19:11:36.835Z,17.73
2022-11-27T19:14:05.679Z,15.70
2022-11-27T19:16:35.092Z,15.60
2022-11-27T19:19:05.027Z,14.93
2022-11-27T19:21:34.008Z,15.83
2022-11-27T19:24:03.238Z,15.67
2022-11-27T19:26:34.371Z,15.53
2022-11-27T19:29:05.622Z,15.40
2022-11-27T19:31:34.114Z,15.60
2022-11-27T19:34:03.053Z,15.27
2022-11-27T19:36:33.131Z,17.27
2022-11-27T19:39:02.457Z,16.50
2022-11-27T19:41:33.082Z,16.83
2022-11-27T19:44:01.358Z,16.87
2022-11-27T19:46:30.288Z,14.83
2022-11-27T19:48:58.951Z,13.33
2022-11-27T19:51:27.680Z,12.50
2022-11-27T19:53:55.543Z,11.80
2022-11-27T19:56:23.740Z,11.53
2022-11-27T19:58:52.799Z,11.63
2022-11-27T20:01:21.273Z,11.63
2022-11-27T20:03:49.814Z,12.13
2022-11-27T20:06:19.870Z,13.50
2022-11-27T20:08:49.129Z,14.13
2022-11-27T20:11:19.317Z,13.37
2022-11-27T20:13:47.331Z,16.67
2022-11-27T20:16:19.100Z,19.33
2022-11-27T20:18:46.944Z,16.03
2022-11-27T20:21:17.038Z,15.13
2022-11-27T20:23:45.605Z,14.43
2022-11-27T20:26:15.033Z,14.33
2022-11-27T20:28:43.282Z,14.00
2022-11-27T20:31:16.865Z,14.80
2022-11-27T20:33:44.598Z,14.93
2022-11-27T20:36:12.843Z,15.23
2022-11-27T20:38:40.536Z,15.40
2022-11-27T20:41:09.810Z,15.47
2022-11-27T20:43:37.742Z,15.20
2022-11-27T20:46:07.669Z,14.17
2022-11-27T20:48:37.078Z,13.33
2022-11-27T20:51:08.507Z,13.70
2022-11-27T20:53:36.511Z,11.47
2022-11-27T20:56:04.478Z,12.57
2022-11-27T20:58:32.157Z,12.40
2022-11-27T21:01:01.084Z,12.13
2022-11-27T21:03:29.198Z,11.77
2022-11-27T21:05:58.288Z,11.60
2022-11-27T21:08:26.009Z,12.17
2022-11-27T21:10:53.771Z,12.60
2022-11-27T21:13:21.489Z,12.50
2022-11-27T21:15:49.479Z,13.80
2022-11-27T21:18:17.152Z,12.63
2022-11-27T21:20:44.883Z,13.23
2022-11-27T21:23:14.224Z,13.27
2022-11-27T21:25:43.810Z,15.50
2022-11-27T21:28:11.443Z,15.30
2022-11-27T21:30:39.185Z,13.03
2022-11-27T21:33:06.900Z,13.60
2022-11-27T21:35:39.091Z,14.70
2022-11-27T21:38:08.010Z,13.50
2022-11-27T21:40:37.560Z,12.67
2022-11-27T21:43:05.240Z,12.77
2022-11-27T21:45:32.892Z,11.30
2022-11-27T21:48:00.585Z,12.93
2022-11-27T21:50:28.303Z,14.90
2022-11-27T21:52:56.042Z,13.77
2022-11-27T21:55:23.724Z,13.47
2022-11-27T21:57:52.784Z,13.50
2022-11-27T22:00:21.313Z,13.97
2022-11-27T22:02:49.085Z,12.53
2022-11-27T22:05:17.027Z,13.10
2022-11-27T22:07:44.822Z,11.77
2022-11-27T22:10:13.188Z,11.00
2022-11-27T22:12:40.907Z,13.13
2022-11-27T22:15:11.312Z,13.77
2022-11-27T22:17:39.254Z,12.83
2022-11-27T22:20:08.351Z,12.77
2022-11-27T22:22:36.073Z,11.60
2022-11-27T22:25:04.625Z,12.33
2022-11-27T22:27:32.461Z,12.77
2022-11-27T22:30:00.309Z,12.07
2022-11-27T22:32:29.400Z,10.73
2022-11-27T22:34:57.018Z,10.50
2022-11-27T22:37:24.749Z,11.37
2022-11-27T22:39:52.407Z,10.40
2022-11-27T22:42:20.105Z,9.93
2022-11-27T22:44:47.812Z,9.70
2022-11-27T22:47:15.503Z,10.83
2022-11-27T22:49:44.688Z,9.73
2022-11-27T22:52:12.328Z,11.60
2022-11-27T22:54:40.284Z,11.27
2022-11-27T22:57:08.202Z,9.13
2022-11-27T22:59:36.113Z,10.13
2022-11-27T23:02:04.830Z,10.00
2022-11-27T23:04:32.690Z,8.90
2022-11-27T23:07:01.721Z,10.37
2022-11-27T23:09:29.581Z,9.83
2022-11-27T23:11:57.573Z,9.03
2022-11-27T23:14:25.271Z,9.27
2022-11-27T23:16:53.056Z,10.90
2022-11-27T23:19:21.162Z,9.50
2022-11-27T23:21:48.907Z,8.83
2022-11-27T23:24:17.987Z,8.77
2022-11-27T23:26:45.948Z,8.80
2022-11-27T23:29:14.449Z,9.43
2022-11-27T23:31:42.522Z,8.40
2022-11-27T23:34:14.273Z,8.97
2022-11-27T23:36:42.024Z,11.20
2022-11-27T23:39:10.382Z,10.37
2022-11-27T23:41:39.821Z,9.30
2022-11-27T23:44:07.802Z,9.50
2022-11-27T23:46:35.531Z,9.47
2022-11-27T23:49:03.164Z,10.13
2022-11-27T23:51:32.623Z,10.27
2022-11-27T23:54:00.596Z,8.77
2022-11-27T23:56:29.823Z,9.57
2022-11-27T23:58:59.976Z,9.30
